sensor_id;sensor_type;location;lat;lon;timestamp;pressure;altitude;pressure_sealevel;temperature;humidity
69245;BME280;56357;52.304;4.870;2023-02-01T00:00:49;102136.53;;;16.72;52.96
69245;BME280;56357;52.304;4.870;2023-02-01T00:03:15;102131.81;;;16.72;53.23
69245;BME280;56357;52.304;4.870;2023-02-01T00:05:44;102130.13;;;16.71;53.13
69245;BME280;56357;52.304;4.870;2023-02-01T00:08:10;102140.09;;;16.67;52.97
69245;BME280;56357;52.304;4.870;2023-02-01T00:10:36;102151.50;;;16.66;53.36
69245;BME280;56357;52.304;4.870;2023-02-01T00:13:03;102147.50;;;16.62;52.59
69245;BME280;56357;52.304;4.870;2023-02-01T00:15:29;102145.28;;;16.64;53.10
69245;BME280;56357;52.304;4.870;2023-02-01T00:17:56;102147.25;;;16.63;53.23
69245;BME280;56357;52.304;4.870;2023-02-01T00:20:22;102148.06;;;16.64;53.23
69245;BME280;56357;52.304;4.870;2023-02-01T00:22:49;102146.13;;;16.64;52.97
69245;BME280;56357;52.304;4.870;2023-02-01T00:25:15;102149.78;;;16.65;53.02
69245;BME280;56357;52.304;4.870;2023-02-01T00:27:42;102152.47;;;16.60;52.82
69245;BME280;56357;52.304;4.870;2023-02-01T00:30:09;102145.66;;;16.56;52.58
69245;BME280;56357;52.304;4.870;2023-02-01T00:32:35;102140.88;;;16.56;52.34
69245;BME280;56357;52.304;4.870;2023-02-01T00:35:02;102145.50;;;16.51;52.95
69245;BME280;56357;52.304;4.870;2023-02-01T00:37:28;102143.69;;;16.56;52.75
69245;BME280;56357;52.304;4.870;2023-02-01T00:39:55;102137.72;;;16.53;52.60
69245;BME280;56357;52.304;4.870;2023-02-01T00:42:22;102131.06;;;16.54;52.48
69245;BME280;56357;52.304;4.870;2023-02-01T00:44:48;102125.69;;;16.52;52.53
69245;BME280;56357;52.304;4.870;2023-02-01T00:47:14;102135.78;;;16.53;52.70
69245;BME280;56357;52.304;4.870;2023-02-01T00:49:41;102116.47;;;16.52;52.95
69245;BME280;56357;52.304;4.870;2023-02-01T00:52:07;102122.97;;;16.45;52.04
69245;BME280;56357;52.304;4.870;2023-02-01T00:54:34;102128.31;;;16.47;52.97
69245;BME280;56357;52.304;4.870;2023-02-01T00:57:02;102121.03;;;16.46;52.67
69245;BME280;56357;52.304;4.870;2023-02-01T00:59:28;102112.84;;;16.44;52.89
69245;BME280;56357;52.304;4.870;2023-02-01T01:01:55;102115.66;;;16.44;52.67
69245;BME280;56357;52.304;4.870;2023-02-01T01:04:21;102109.94;;;16.39;52.11
69245;BME280;56357;52.304;4.870;2023-02-01T01:06:48;102103.50;;;16.39;52.22
69245;BME280;56357;52.304;4.870;2023-02-01T01:09:14;102115.03;;;16.42;52.91
69245;BME280;56357;52.304;4.870;2023-02-01T01:11:41;102113.84;;;16.38;52.93
69245;BME280;56357;52.304;4.870;2023-02-01T01:14:10;102120.50;;;16.37;52.17
69245;BME280;56357;52.304;4.870;2023-02-01T01:16:37;102127.22;;;16.36;51.95
69245;BME280;56357;52.304;4.870;2023-02-01T01:19:04;102114.66;;;16.39;52.73
69245;BME280;56357;52.304;4.870;2023-02-01T01:21:30;102117.47;;;16.39;52.65
69245;BME280;56357;52.304;4.870;2023-02-01T01:23:57;102119.03;;;16.35;52.30
69245;BME280;56357;52.304;4.870;2023-02-01T01:26:26;102122.56;;;16.30;52.67
69245;BME280;56357;52.304;4.870;2023-02-01T01:28:55;102125.97;;;16.32;52.38
69245;BME280;56357;52.304;4.870;2023-02-01T01:31:22;102119.59;;;16.25;52.87
69245;BME280;56357;52.304;4.870;2023-02-01T01:33:54;102128.41;;;16.29;52.66
69245;BME280;56357;52.304;4.870;2023-02-01T01:36:22;102121.94;;;16.28;52.16
69245;BME280;56357;52.304;4.870;2023-02-01T01:38:48;102119.28;;;16.33;52.11
69245;BME280;56357;52.304;4.870;2023-02-01T01:41:18;102094.56;;;16.19;52.55
69245;BME280;56357;52.304;4.870;2023-02-01T01:46:21;102109.78;;;16.23;52.70
69245;BME280;56357;52.304;4.870;2023-02-01T01:51:38;102097.38;;;16.19;52.44
69245;BME280;56357;52.304;4.870;2023-02-01T01:54:22;102114.13;;;16.19;51.66
69245;BME280;56357;52.304;4.870;2023-02-01T01:56:52;102103.34;;;16.22;52.42
69245;BME280;56357;52.304;4.870;2023-02-01T01:59:23;102095.66;;;16.18;52.40
69245;BME280;56357;52.304;4.870;2023-02-01T02:01:51;102109.41;;;16.19;52.36
69245;BME280;56357;52.304;4.870;2023-02-01T02:04:18;102116.31;;;16.17;52.12
69245;BME280;56357;52.304;4.870;2023-02-01T02:06:59;102104.28;;;16.16;52.36
69245;BME280;56357;52.304;4.870;2023-02-01T02:09:27;102111.19;;;16.14;51.95
69245;BME280;56357;52.304;4.870;2023-02-01T02:11:53;102095.28;;;16.14;52.42
69245;BME280;56357;52.304;4.870;2023-02-01T02:14:22;102083.47;;;16.12;52.16
69245;BME280;56357;52.304;4.870;2023-02-01T02:17:03;102085.91;;;16.09;52.54
69245;BME280;56357;52.304;4.870;2023-02-01T02:25:14;102070.47;;;16.06;52.40
69245;BME280;56357;52.304;4.870;2023-02-01T02:27:54;102092.47;;;16.14;52.59
69245;BME280;56357;52.304;4.870;2023-02-01T02:30:52;102087.38;;;16.11;52.36
69245;BME280;56357;52.304;4.870;2023-02-01T02:36:10;102075.09;;;16.12;52.53
69245;BME280;56357;52.304;4.870;2023-02-01T02:38:47;102059.78;;;16.03;51.90
69245;BME280;56357;52.304;4.870;2023-02-01T02:41:27;102049.81;;;16.07;52.87
69245;BME280;56357;52.304;4.870;2023-02-01T02:44:21;102044.69;;;16.04;52.16
69245;BME280;56357;52.304;4.870;2023-02-01T02:47:13;102036.19;;;15.99;52.07
69245;BME280;56357;52.304;4.870;2023-02-01T02:52:52;102040.06;;;15.98;52.77
69245;BME280;56357;52.304;4.870;2023-02-01T02:55:39;102038.38;;;15.97;52.81
69245;BME280;56357;52.304;4.870;2023-02-01T02:58:07;102035.44;;;15.92;52.07
69245;BME280;56357;52.304;4.870;2023-02-01T03:00:53;102060.72;;;15.97;52.51
69245;BME280;56357;52.304;4.870;2023-02-01T03:03:38;102048.59;;;16.03;52.66
69245;BME280;56357;52.304;4.870;2023-02-01T03:06:23;102040.81;;;16.05;52.34
69245;BME280;56357;52.304;4.870;2023-02-01T03:08:50;102049.66;;;16.02;52.72
69245;BME280;56357;52.304;4.870;2023-02-01T03:11:23;102042.06;;;16.09;52.85
69245;BME280;56357;52.304;4.870;2023-02-01T03:14:10;102040.09;;;16.10;52.66
69245;BME280;56357;52.304;4.870;2023-02-01T03:16:48;102040.25;;;16.15;52.34
69245;BME280;56357;52.304;4.870;2023-02-01T03:19:34;102037.69;;;16.13;52.58
69245;BME280;56357;52.304;4.870;2023-02-01T03:22:04;102047.31;;;16.17;52.48
69245;BME280;56357;52.304;4.870;2023-02-01T03:29:50;102044.97;;;16.14;51.70
69245;BME280;56357;52.304;4.870;2023-02-01T03:32:18;102034.53;;;16.21;52.49
69245;BME280;56357;52.304;4.870;2023-02-01T03:34:46;102036.63;;;16.26;52.26
69245;BME280;56357;52.304;4.870;2023-02-01T03:37:16;102039.66;;;16.24;52.52
69245;BME280;56357;52.304;4.870;2023-02-01T03:40:07;102043.06;;;16.26;52.70
69245;BME280;56357;52.304;4.870;2023-02-01T03:42:45;102046.22;;;16.30;52.53
69245;BME280;56357;52.304;4.870;2023-02-01T03:45:21;102047.91;;;16.31;52.35
69245;BME280;56357;52.304;4.870;2023-02-01T03:47:53;102058.13;;;16.25;52.71
69245;BME280;56357;52.304;4.870;2023-02-01T03:50:22;102050.25;;;16.34;52.81
69245;BME280;56357;52.304;4.870;2023-02-01T03:52:55;102048.44;;;16.39;52.36
69245;BME280;56357;52.304;4.870;2023-02-01T03:55:25;102061.81;;;16.37;52.70
69245;BME280;56357;52.304;4.870;2023-02-01T03:58:12;102055.84;;;16.34;52.43
69245;BME280;56357;52.304;4.870;2023-02-01T04:00:40;102044.16;;;16.37;52.21
69245;BME280;56357;52.304;4.870;2023-02-01T04:03:07;102044.56;;;16.40;51.88
69245;BME280;56357;52.304;4.870;2023-02-01T04:05:34;102047.34;;;16.40;52.60
69245;BME280;56357;52.304;4.870;2023-02-01T04:08:00;102046.25;;;16.41;52.70
69245;BME280;56357;52.304;4.870;2023-02-01T04:10:27;102045.53;;;16.34;52.30
69245;BME280;56357;52.304;4.870;2023-02-01T04:12:54;102045.63;;;16.39;52.00
69245;BME280;56357;52.304;4.870;2023-02-01T04:15:20;102053.94;;;16.46;52.48
69245;BME280;56357;52.304;4.870;2023-02-01T04:17:46;102037.97;;;16.46;52.35
69245;BME280;56357;52.304;4.870;2023-02-01T04:20:13;102035.31;;;16.40;52.19
69245;BME280;56357;52.304;4.870;2023-02-01T04:22:39;102039.94;;;16.46;52.26
69245;BME280;56357;52.304;4.870;2023-02-01T04:25:06;102040.59;;;16.48;52.42
69245;BME280;56357;52.304;4.870;2023-02-01T04:27:33;102046.88;;;16.43;52.59
69245;BME280;56357;52.304;4.870;2023-02-01T04:30:00;102034.56;;;16.44;52.70
69245;BME280;56357;52.304;4.870;2023-02-01T04:32:26;102048.09;;;16.47;52.59
69245;BME280;56357;52.304;4.870;2023-02-01T04:34:53;102032.88;;;16.43;52.62
69245;BME280;56357;52.304;4.870;2023-02-01T04:37:19;102046.88;;;16.43;52.59
69245;BME280;56357;52.304;4.870;2023-02-01T04:39:46;102055.63;;;16.47;52.35
69245;BME280;56357;52.304;4.870;2023-02-01T04:42:12;102052.59;;;16.48;52.50
69245;BME280;56357;52.304;4.870;2023-02-01T04:44:39;102036.28;;;16.45;52.55
69245;BME280;56357;52.304;4.870;2023-02-01T04:47:07;102043.56;;;16.46;52.69
69245;BME280;56357;52.304;4.870;2023-02-01T04:49:34;102027.78;;;16.52;52.39
69245;BME280;56357;52.304;4.870;2023-02-01T04:52:01;102022.00;;;16.54;52.74
69245;BME280;56357;52.304;4.870;2023-02-01T04:54:27;102029.28;;;16.55;52.21
69245;BME280;56357;52.304;4.870;2023-02-01T04:56:53;102024.78;;;16.54;52.80
69245;BME280;56357;52.304;4.870;2023-02-01T04:59:20;102011.41;;;16.56;52.71
69245;BME280;56357;52.304;4.870;2023-02-01T05:01:46;102022.59;;;16.56;52.45
69245;BME280;56357;52.304;4.870;2023-02-01T05:04:13;102027.44;;;16.48;52.85
69245;BME280;56357;52.304;4.870;2023-02-01T05:06:39;102008.22;;;16.52;52.67
69245;BME280;56357;52.304;4.870;2023-02-01T05:09:05;102017.22;;;16.54;52.84
69245;BME280;56357;52.304;4.870;2023-02-01T05:11:32;102037.06;;;16.53;52.72
69245;BME280;56357;52.304;4.870;2023-02-01T05:14:12;102038.88;;;16.59;51.78
69245;BME280;56357;52.304;4.870;2023-02-01T05:16:39;102040.81;;;16.58;52.37
69245;BME280;56357;52.304;4.870;2023-02-01T05:19:05;102046.41;;;16.58;52.72
69245;BME280;56357;52.304;4.870;2023-02-01T05:21:32;102060.66;;;16.57;52.75
69245;BME280;56357;52.304;4.870;2023-02-01T05:23:58;102045.94;;;16.61;52.51
69245;BME280;56357;52.304;4.870;2023-02-01T05:26:42;102051.66;;;16.55;52.89
69245;BME280;56357;52.304;4.870;2023-02-01T05:29:09;102058.56;;;16.64;52.60
69245;BME280;56357;52.304;4.870;2023-02-01T05:31:36;102054.69;;;16.65;52.56
69245;BME280;56357;52.304;4.870;2023-02-01T05:34:03;102052.16;;;16.63;52.41
69245;BME280;56357;52.304;4.870;2023-02-01T05:36:30;102057.00;;;16.68;52.59
69245;BME280;56357;52.304;4.870;2023-02-01T05:38:57;102048.50;;;16.63;52.68
69245;BME280;56357;52.304;4.870;2023-02-01T05:41:23;102028.41;;;16.66;52.48
69245;BME280;56357;52.304;4.870;2023-02-01T05:43:50;102044.72;;;16.69;52.88
69245;BME280;56357;52.304;4.870;2023-02-01T05:46:16;102049.72;;;16.67;52.63
69245;BME280;56357;52.304;4.870;2023-02-01T05:48:43;102037.66;;;16.66;51.84
69245;BME280;56357;52.304;4.870;2023-02-01T05:51:10;102035.97;;;16.65;52.04
69245;BME280;56357;52.304;4.870;2023-02-01T05:53:37;102042.41;;;16.66;52.35
69245;BME280;56357;52.304;4.870;2023-02-01T05:56:04;102045.59;;;16.58;52.41
69245;BME280;56357;52.304;4.870;2023-02-01T05:58:30;102047.88;;;16.72;51.97
69245;BME280;56357;52.304;4.870;2023-02-01T06:00:59;102038.78;;;16.65;51.99
69245;BME280;56357;52.304;4.870;2023-02-01T06:03:26;102038.88;;;16.70;52.01
69245;BME280;56357;52.304;4.870;2023-02-01T06:05:53;102041.56;;;16.65;52.27
69245;BME280;56357;52.304;4.870;2023-02-01T06:08:19;102053.25;;;16.74;52.04
69245;BME280;56357;52.304;4.870;2023-02-01T06:10:46;102041.56;;;16.77;51.56
69245;BME280;56357;52.304;4.870;2023-02-01T06:13:12;102048.75;;;16.73;52.01
69245;BME280;56357;52.304;4.870;2023-02-01T06:15:39;102048.13;;;16.71;52.72
69245;BME280;56357;52.304;4.870;2023-02-01T06:18:07;102047.78;;;16.79;52.53
69245;BME280;56357;52.304;4.870;2023-02-01T06:20:34;102061.38;;;16.87;52.40
69245;BME280;56357;52.304;4.870;2023-02-01T06:23:00;102056.41;;;16.89;52.26
69245;BME280;56357;52.304;4.870;2023-02-01T06:25:27;102051.03;;;16.87;52.94
69245;BME280;56357;52.304;4.870;2023-02-01T06:27:53;102049.97;;;16.88;53.57
69245;BME280;56357;52.304;4.870;2023-02-01T06:30:19;102050.69;;;16.95;53.89
69245;BME280;56357;52.304;4.870;2023-02-01T06:32:50;102045.44;;;16.87;54.34
69245;BME280;56357;52.304;4.870;2023-02-01T06:35:18;102049.97;;;16.88;54.97
69245;BME280;56357;52.304;4.870;2023-02-01T06:37:45;102046.19;;;16.94;54.53
69245;BME280;56357;52.304;4.870;2023-02-01T06:40:12;102050.56;;;16.90;55.12
69245;BME280;56357;52.304;4.870;2023-02-01T06:42:38;102048.84;;;16.89;54.33
69245;BME280;56357;52.304;4.870;2023-02-01T06:45:05;102043.00;;;16.91;54.43
69245;BME280;56357;52.304;4.870;2023-02-01T06:47:32;102043.97;;;16.96;55.13
69245;BME280;56357;52.304;4.870;2023-02-01T06:49:58;102049.81;;;16.95;54.86
69245;BME280;56357;52.304;4.870;2023-02-01T06:52:25;102056.19;;;16.90;54.68
69245;BME280;56357;52.304;4.870;2023-02-01T06:54:51;102058.13;;;16.90;55.23
69245;BME280;56357;52.304;4.870;2023-02-01T06:57:18;102067.84;;;16.99;54.94
69245;BME280;56357;52.304;4.870;2023-02-01T06:59:44;102061.16;;;17.00;55.11
69245;BME280;56357;52.304;4.870;2023-02-01T07:02:11;102063.34;;;16.98;55.21
69245;BME280;56357;52.304;4.870;2023-02-01T07:04:38;102071.75;;;16.98;54.63
69245;BME280;56357;52.304;4.870;2023-02-01T07:07:04;102055.56;;;17.00;55.20
69245;BME280;56357;52.304;4.870;2023-02-01T07:09:31;102062.84;;;17.01;54.10
69245;BME280;56357;52.304;4.870;2023-02-01T07:11:57;102060.91;;;17.13;55.15
69245;BME280;56357;52.304;4.870;2023-02-01T07:14:24;102049.09;;;17.11;54.58
69245;BME280;56357;52.304;4.870;2023-02-01T07:16:50;102049.22;;;17.04;55.06
69245;BME280;56357;52.304;4.870;2023-02-01T07:19:17;102039.13;;;17.03;54.23
69245;BME280;56357;52.304;4.870;2023-02-01T07:21:43;102058.97;;;17.02;55.02
69245;BME280;56357;52.304;4.870;2023-02-01T07:24:09;102062.13;;;16.94;54.88
69245;BME280;56357;52.304;4.870;2023-02-01T07:26:36;102055.06;;;17.03;54.56
69245;BME280;56357;52.304;4.870;2023-02-01T07:29:02;102057.50;;;16.99;55.41
69245;BME280;56357;52.304;4.870;2023-02-01T07:31:29;102069.16;;;17.08;55.80
69245;BME280;56357;52.304;4.870;2023-02-01T07:33:55;102062.72;;;17.07;55.81
69245;BME280;56357;52.304;4.870;2023-02-01T07:36:23;102067.47;;;17.07;56.15
69245;BME280;56357;52.304;4.870;2023-02-01T07:38:50;102067.72;;;17.17;56.47
69245;BME280;56357;52.304;4.870;2023-02-01T07:41:17;102057.34;;;17.17;55.50
69245;BME280;56357;52.304;4.870;2023-02-01T07:43:43;102052.84;;;17.16;55.41
69245;BME280;56357;52.304;4.870;2023-02-01T07:46:10;102075.25;;;17.16;55.32
69245;BME280;56357;52.304;4.870;2023-02-01T07:48:37;102076.34;;;17.15;55.46
69245;BME280;56357;52.304;4.870;2023-02-01T07:51:07;102079.03;;;17.10;54.64
69245;BME280;56357;52.304;4.870;2023-02-01T07:53:35;102067.09;;;17.15;54.46
69245;BME280;56357;52.304;4.870;2023-02-01T07:56:02;102082.44;;;17.12;54.25
69245;BME280;56357;52.304;4.870;2023-02-01T07:58:29;102070.50;;;17.17;53.99
69245;BME280;56357;52.304;4.870;2023-02-01T08:00:55;102076.34;;;17.15;53.71
69245;BME280;56357;52.304;4.870;2023-02-01T08:03:40;102073.16;;;17.12;54.56
69245;BME280;56357;52.304;4.870;2023-02-01T08:06:06;102077.34;;;17.09;54.11
69245;BME280;56357;52.304;4.870;2023-02-01T08:08:33;102060.91;;;17.01;54.33
69245;BME280;56357;52.304;4.870;2023-02-01T08:11:01;102069.41;;;17.06;54.43
69245;BME280;56357;52.304;4.870;2023-02-01T08:13:28;102071.84;;;17.14;54.99
69245;BME280;56357;52.304;4.870;2023-02-01T08:15:59;102044.97;;;17.13;55.08
69245;BME280;56357;52.304;4.870;2023-02-01T08:18:26;102050.41;;;17.20;55.14
69245;BME280;56357;52.304;4.870;2023-02-01T08:20:53;102039.69;;;17.28;55.91
69245;BME280;56357;52.304;4.870;2023-02-01T08:23:20;102041.03;;;17.26;56.04
69245;BME280;56357;52.304;4.870;2023-02-01T08:25:47;102042.84;;;17.32;56.34
69245;BME280;56357;52.304;4.870;2023-02-01T08:28:14;102041.72;;;17.33;56.58
69245;BME280;56357;52.304;4.870;2023-02-01T08:30:40;102046.13;;;17.29;56.68
69245;BME280;56357;52.304;4.870;2023-02-01T08:33:08;102043.44;;;17.34;58.02
69245;BME280;56357;52.304;4.870;2023-02-01T08:35:36;102028.84;;;17.32;58.34
69245;BME280;56357;52.304;4.870;2023-02-01T08:38:03;102038.56;;;17.41;58.98
69245;BME280;56357;52.304;4.870;2023-02-01T08:40:29;102051.69;;;17.40;58.33
69245;BME280;56357;52.304;4.870;2023-02-01T08:42:56;102059.75;;;17.37;59.14
69245;BME280;56357;52.304;4.870;2023-02-01T08:45:28;102065.69;;;17.40;58.83
69245;BME280;56357;52.304;4.870;2023-02-01T08:47:55;102056.69;;;17.50;58.71
69245;BME280;56357;52.304;4.870;2023-02-01T08:50:23;102051.09;;;17.38;57.83
69245;BME280;56357;52.304;4.870;2023-02-01T08:52:51;102038.69;;;17.46;58.13
69245;BME280;56357;52.304;4.870;2023-02-01T08:55:18;102034.78;;;17.47;58.41
69245;BME280;56357;52.304;4.870;2023-02-01T08:57:44;102041.47;;;17.46;58.48
69245;BME280;56357;52.304;4.870;2023-02-01T09:00:14;102031.38;;;17.45;58.88
69245;BME280;56357;52.304;4.870;2023-02-01T09:02:41;102049.88;;;17.46;58.19
69245;BME280;56357;52.304;4.870;2023-02-01T09:05:08;102034.28;;;17.50;58.14
69245;BME280;56357;52.304;4.870;2023-02-01T09:07:36;102024.81;;;17.51;58.09
69245;BME280;56357;52.304;4.870;2023-02-01T09:10:03;102034.28;;;17.50;59.29
69245;BME280;56357;52.304;4.870;2023-02-01T09:12:31;102030.91;;;17.48;58.52
69245;BME280;56357;52.304;4.870;2023-02-01T09:14:58;102046.47;;;17.44;58.85
69245;BME280;56357;52.304;4.870;2023-02-01T09:17:28;102038.31;;;17.42;58.51
69245;BME280;56357;52.304;4.870;2023-02-01T09:19:54;102048.91;;;17.40;59.11
69245;BME280;56357;52.304;4.870;2023-02-01T09:22:21;102049.28;;;17.44;59.24
69245;BME280;56357;52.304;4.870;2023-02-01T09:24:47;102032.84;;;17.36;57.89
69245;BME280;56357;52.304;4.870;2023-02-01T09:27:14;102023.94;;;17.39;58.77
69245;BME280;56357;52.304;4.870;2023-02-01T09:29:40;102037.94;;;17.39;58.90
69245;BME280;56357;52.304;4.870;2023-02-01T09:32:07;102033.22;;;17.39;59.00
69245;BME280;56357;52.304;4.870;2023-02-01T09:34:33;102050.38;;;17.43;58.94
69245;BME280;56357;52.304;4.870;2023-02-01T09:37:00;102045.75;;;17.37;57.93
69245;BME280;56357;52.304;4.870;2023-02-01T09:39:27;102037.94;;;17.39;57.80
69245;BME280;56357;52.304;4.870;2023-02-01T09:46:59;102029.56;;;17.27;56.60
69245;BME280;56357;52.304;4.870;2023-02-01T09:49:33;102029.56;;;17.27;57.25
69245;BME280;56357;52.304;4.870;2023-02-01T09:52:04;102022.28;;;17.26;56.70
69245;BME280;56357;52.304;4.870;2023-02-01T09:55:13;102023.72;;;17.29;56.55
69245;BME280;56357;52.304;4.870;2023-02-01T09:57:44;102014.16;;;17.25;57.11
69245;BME280;56357;52.304;4.870;2023-02-01T10:00:23;102026.16;;;17.25;56.65
69245;BME280;56357;52.304;4.870;2023-02-01T10:02:54;102043.22;;;17.24;56.66
69245;BME280;56357;52.304;4.870;2023-02-01T10:10:52;102032.28;;;17.22;56.56
69245;BME280;56357;52.304;4.870;2023-02-01T10:16:35;102050.06;;;17.16;56.64
69245;BME280;56357;52.304;4.870;2023-02-01T10:19:30;102039.09;;;17.15;55.64
69245;BME280;56357;52.304;4.870;2023-02-01T10:25:12;102032.53;;;17.21;56.69
69245;BME280;56357;52.304;4.870;2023-02-01T10:27:40;102033.50;;;17.15;56.87
69245;BME280;56357;52.304;4.870;2023-02-01T10:30:17;102036.91;;;17.17;57.24
69245;BME280;56357;52.304;4.870;2023-02-01T10:32:44;102040.31;;;17.19;57.04
69245;BME280;56357;52.304;4.870;2023-02-01T10:35:17;102030.47;;;17.16;57.27
69245;BME280;56357;52.304;4.870;2023-02-01T10:37:45;102021.09;;;17.22;57.44
69245;BME280;56357;52.304;4.870;2023-02-01T10:40:23;102029.00;;;17.14;57.06
69245;BME280;56357;52.304;4.870;2023-02-01T10:42:56;102034.38;;;17.15;57.34
69245;BME280;56357;52.304;4.870;2023-02-01T10:45:26;102028.91;;;17.09;57.10
69245;BME280;56357;52.304;4.870;2023-02-01T10:47:55;102038.50;;;17.13;56.88
69245;BME280;56357;52.304;4.870;2023-02-01T10:50:47;102046.28;;;17.11;56.44
69245;BME280;56357;52.304;4.870;2023-02-01T10:53:22;102038.16;;;17.09;56.24
69245;BME280;56357;52.304;4.870;2023-02-01T10:55:54;102035.97;;;17.11;56.97
69245;BME280;56357;52.304;4.870;2023-02-01T10:58:28;102040.19;;;17.14;56.81
69245;BME280;56357;52.304;4.870;2023-02-01T11:01:01;102024.00;;;17.16;56.63
69245;BME280;56357;52.304;4.870;2023-02-01T11:08:50;102029.50;;;17.11;56.11
69245;BME280;56357;52.304;4.870;2023-02-01T11:11:17;102017.56;;;17.15;56.69
69245;BME280;56357;52.304;4.870;2023-02-01T11:13:44;102025.38;;;17.13;57.31
69245;BME280;56357;52.304;4.870;2023-02-01T11:16:13;102007.22;;;17.16;57.22
69245;BME280;56357;52.304;4.870;2023-02-01T11:18:41;102016.09;;;17.13;56.81
69245;BME280;56357;52.304;4.870;2023-02-01T11:21:09;102011.00;;;17.10;56.98
69245;BME280;56357;52.304;4.870;2023-02-01T11:23:41;102014.78;;;17.04;55.85
69245;BME280;56357;52.304;4.870;2023-02-01T11:26:25;102017.44;;;17.10;55.74
69245;BME280;56357;52.304;4.870;2023-02-01T11:29:05;102007.09;;;17.11;55.56
69245;BME280;56357;52.304;4.870;2023-02-01T11:31:35;102008.09;;;17.05;55.47
69245;BME280;56357;52.304;4.870;2023-02-01T11:34:08;102014.53;;;17.05;54.63
69245;BME280;56357;52.304;4.870;2023-02-01T11:36:39;102007.47;;;17.03;54.77
69245;BME280;56357;52.304;4.870;2023-02-01T11:39:25;102004.59;;;16.98;54.50
69245;BME280;56357;52.304;4.870;2023-02-01T11:42:15;102023.66;;;17.01;54.78
69245;BME280;56357;52.304;4.870;2023-02-01T11:44:44;102011.41;;;17.02;54.37
69245;BME280;56357;52.304;4.870;2023-02-01T11:50:03;102003.34;;;17.05;54.54
69245;BME280;56357;52.304;4.870;2023-02-01T11:55:50;102000.66;;;17.10;54.80
69245;BME280;56357;52.304;4.870;2023-02-01T12:01:47;101989.72;;;17.09;55.67
69245;BME280;56357;52.304;4.870;2023-02-01T12:06:50;101992.41;;;17.04;55.29
69245;BME280;56357;52.304;4.870;2023-02-01T12:09:39;101981.78;;;17.06;55.95
69245;BME280;56357;52.304;4.870;2023-02-01T12:15:46;101985.78;;;17.10;55.16
69245;BME280;56357;52.304;4.870;2023-02-01T12:18:44;101986.91;;;17.09;55.43
69245;BME280;56357;52.304;4.870;2023-02-01T12:21:48;101974.84;;;17.08;55.34
69245;BME280;56357;52.304;4.870;2023-02-01T12:24:23;101977.91;;;17.07;55.95
69245;BME280;56357;52.304;4.870;2023-02-01T12:29:54;101956.72;;;17.11;55.52
69245;BME280;56357;52.304;4.870;2023-02-01T12:38:12;101990.19;;;17.06;55.34
69245;BME280;56357;52.304;4.870;2023-02-01T12:40:52;101980.72;;;17.07;54.82
69245;BME280;56357;52.304;4.870;2023-02-01T12:43:31;101994.94;;;17.05;55.21
69245;BME280;56357;52.304;4.870;2023-02-01T12:46:10;101980.81;;;17.00;54.94
69245;BME280;56357;52.304;4.870;2023-02-01T12:48:56;101990.19;;;17.06;54.78
69245;BME280;56357;52.304;4.870;2023-02-01T12:51:28;101991.19;;;17.00;54.32
69245;BME280;56357;52.304;4.870;2023-02-01T12:59:22;101993.13;;;16.99;55.03
69245;BME280;56357;52.304;4.870;2023-02-01T13:02:06;101983.16;;;17.03;54.95
69245;BME280;56357;52.304;4.870;2023-02-01T13:04:49;101981.94;;;16.99;55.15
69245;BME280;56357;52.304;4.870;2023-02-01T13:07:22;101998.00;;;17.04;54.90
69245;BME280;56357;52.304;4.870;2023-02-01T13:12:34;101990.59;;;16.98;54.50
69245;BME280;56357;52.304;4.870;2023-02-01T13:15:14;102002.00;;;16.96;55.00
69245;BME280;56357;52.304;4.870;2023-02-01T13:17:43;101977.69;;;16.97;55.27
69245;BME280;56357;52.304;4.870;2023-02-01T13:22:57;101992.44;;;16.92;54.82
69245;BME280;56357;52.304;4.870;2023-02-01T13:25:45;101992.66;;;16.91;55.14
69245;BME280;56357;52.304;4.870;2023-02-01T13:28:18;101994.97;;;16.94;54.85
69245;BME280;56357;52.304;4.870;2023-02-01T13:31:03;101988.25;;;16.95;55.17
69245;BME280;56357;52.304;4.870;2023-02-01T13:33:43;101988.00;;;16.96;55.17
69245;BME280;56357;52.304;4.870;2023-02-01T13:41:57;101981.34;;;16.97;55.03
69245;BME280;56357;52.304;4.870;2023-02-01T13:47:12;101979.50;;;16.91;54.71
69245;BME280;56357;52.304;4.870;2023-02-01T13:49:42;101981.72;;;16.89;54.60
69245;BME280;56357;52.304;4.870;2023-02-01T13:52:24;101980.97;;;16.94;54.25
69245;BME280;56357;52.304;4.870;2023-02-01T13:57:49;101978.88;;;17.01;55.37
69245;BME280;56357;52.304;4.870;2023-02-01T14:00:31;101980.81;;;17.00;54.82
69245;BME280;56357;52.304;4.870;2023-02-01T14:13:36;101981.09;;;16.99;54.76
69245;BME280;56357;52.304;4.870;2023-02-01T14:21:33;101983.78;;;16.94;56.18
69245;BME280;56357;52.304;4.870;2023-02-01T14:24:16;101982.06;;;16.93;56.04
69245;BME280;56357;52.304;4.870;2023-02-01T14:26:48;101978.31;;;16.87;55.97
69245;BME280;56357;52.304;4.870;2023-02-01T14:29:31;101982.06;;;16.93;57.05
69245;BME280;56357;52.304;4.870;2023-02-01T14:32:11;101982.91;;;16.93;56.99
69245;BME280;56357;52.304;4.870;2023-02-01T14:39:49;101987.31;;;16.89;57.57
69245;BME280;56357;52.304;4.870;2023-02-01T14:44:43;102011.63;;;16.89;61.93
69245;BME280;56357;52.304;4.870;2023-02-01T14:52:39;102011.63;;;17.00;62.46
69245;BME280;56357;52.304;4.870;2023-02-01T14:55:14;102012.22;;;16.91;61.01
69245;BME280;56357;52.304;4.870;2023-02-01T14:57:43;102012.97;;;16.98;62.58
69245;BME280;56357;52.304;4.870;2023-02-01T15:00:25;102019.03;;;16.95;62.49
69245;BME280;56357;52.304;4.870;2023-02-01T15:02:54;102018.94;;;16.90;63.02
69245;BME280;56357;52.304;4.870;2023-02-01T15:07:54;102016.16;;;16.90;62.92
69245;BME280;56357;52.304;4.870;2023-02-01T15:10:22;102022.81;;;16.89;63.35